createdAt,value
2022-08-09T00:00:00.441Z,102872.44
2022-08-09T00:02:27.837Z,102882.03
2022-08-09T00:05:00.790Z,102884.53
2022-08-09T00:07:44.524Z,102874.84
2022-08-09T00:10:21.556Z,102884.38
2022-08-09T00:12:51.553Z,102866.00
2022-08-09T00:15:35.430Z,102877.38
2022-08-09T00:18:11.633Z,102871.13
2022-08-09T00:20:42.135Z,102868.50
2022-08-09T00:23:56.142Z,102865.84
2022-08-09T00:26:01.630Z,102864.06
2022-08-09T00:28:32.022Z,102870.09
2022-08-09T00:31:30.500Z,102865.59
2022-08-09T00:33:50.861Z,102857.69
2022-08-09T00:36:18.674Z,102872.47
2022-08-09T00:38:45.340Z,102873.31
2022-08-09T00:44:10.100Z,102882.00
2022-08-09T00:44:13.074Z,102874.09
2022-08-09T00:46:56.957Z,102876.56
2022-08-09T00:49:32.207Z,102879.28
2022-08-09T00:52:02.155Z,102872.28
2022-08-09T00:54:36.096Z,102868.81
2022-08-09T00:57:10.325Z,102875.75
2022-08-09T00:59:41.355Z,102869.63
2022-08-09T01:02:23.249Z,102860.03
2022-08-09T01:05:14.009Z,102859.19
2022-08-09T01:08:00.920Z,102863.59
2022-08-09T01:10:35.841Z,102863.56
2022-08-09T01:13:04.683Z,102872.19
2022-08-09T01:15:40.977Z,102870.38
2022-08-09T01:18:30.223Z,102870.34
2022-08-09T01:21:00.598Z,102879.03
2022-08-09T01:24:02.679Z,102872.03
2022-08-09T01:26:37.087Z,102871.91
2022-08-09T01:29:06.978Z,102874.47
2022-08-09T01:32:31.851Z,102878.75
2022-08-09T01:34:24.991Z,102880.41
2022-08-09T01:36:56.319Z,102883.88
2022-08-09T01:39:26.355Z,102875.13
2022-08-09T01:42:00.535Z,102883.84
2022-08-09T01:44:30.679Z,102877.59
2022-08-09T01:46:59.227Z,102877.53
2022-08-09T01:49:38.881Z,102881.03
2022-08-09T01:52:10.475Z,102880.09
2022-08-09T01:54:42.073Z,102873.91
2022-08-09T01:57:17.457Z,102877.28
2022-08-09T01:59:51.819Z,102876.28
2022-08-09T02:02:22.706Z,102878.00
2022-08-09T02:04:51.323Z,102871.81
2022-08-09T02:08:40.140Z,102872.63
2022-08-09T02:10:16.085Z,102879.53
2022-08-09T02:12:46.022Z,102889.22
2022-08-09T02:15:16.731Z,102876.97
2022-08-09T02:18:00.799Z,102881.25
2022-08-09T02:20:35.283Z,102877.66
2022-08-09T02:23:17.125Z,102874.22
2022-08-09T02:25:52.902Z,102884.50
2022-08-09T02:28:34.291Z,102884.38
2022-08-09T02:31:08.815Z,102878.28
2022-08-09T02:34:06.463Z,102877.31
2022-08-09T02:36:33.921Z,102880.72
2022-08-09T02:39:04.881Z,102880.59
2022-08-09T02:42:04.091Z,102884.91
2022-08-09T02:44:44.497Z,102869.19
2022-08-09T02:47:13.804Z,102871.00
2022-08-09T02:50:01.330Z,102869.22
2022-08-09T02:52:40.172Z,102868.38
2022-08-09T02:55:20.382Z,102864.13
2022-08-09T02:58:00.103Z,102843.06
2022-08-09T03:00:39.575Z,102863.06
2022-08-09T03:04:05.847Z,102852.50
2022-08-09T03:06:15.028Z,102804.25
2022-08-09T03:08:46.336Z,102847.28
2022-08-09T03:12:04.217Z,102853.31
2022-08-09T03:14:08.287Z,102861.84
2022-08-09T03:16:41.615Z,102859.25
2022-08-09T03:19:14.586Z,102853.91
2022-08-09T03:21:58.230Z,102855.53
2022-08-09T03:24:42.071Z,102862.63
2022-08-09T03:27:13.552Z,102855.63
2022-08-09T03:30:01.026Z,102861.69
2022-08-09T03:32:30.696Z,102867.75
2022-08-09T03:34:58.804Z,102870.31
2022-08-09T03:37:55.472Z,102844.91
2022-08-09T03:40:13.472Z,102865.94
2022-08-09T03:42:44.448Z,102871.13
2022-08-09T03:45:11.562Z,102869.50
2022-08-09T03:47:41.905Z,102874.63
2022-08-09T03:50:12.189Z,102870.97
2022-08-09T03:52:43.468Z,102882.38
2022-08-09T03:55:14.526Z,102888.44
2022-08-09T03:57:53.451Z,102879.66
2022-08-09T04:00:29.564Z,102887.41
2022-08-09T04:02:57.548Z,102883.81
2022-08-09T04:05:27.609Z,102891.44
2022-08-09T04:07:57.766Z,102898.53
2022-08-09T04:10:29.180Z,102895.22
2022-08-09T04:13:01.419Z,102890.03
2022-08-09T04:16:17.173Z,102893.50
2022-08-09T04:18:19.302Z,102893.59
2022-08-09T04:20:48.069Z,102895.22
2022-08-09T04:23:16.842Z,102883.63
2022-08-09T04:25:52.226Z,102897.63
2022-08-09T04:28:30.573Z,102902.03
2022-08-09T04:31:05.750Z,102894.91
2022-08-09T04:33:47.366Z,102886.25
2022-08-09T04:36:25.059Z,102908.97
2022-08-09T04:38:52.896Z,102902.03
2022-08-09T04:41:19.953Z,102903.81
2022-08-09T04:44:05.647Z,102900.41
2022-08-09T04:46:37.312Z,102913.50
2022-08-09T04:49:30.103Z,102915.25
2022-08-09T04:52:07.544Z,102904.88
2022-08-09T04:54:36.716Z,102911.03
2022-08-09T04:57:03.980Z,102918.88
2022-08-09T04:59:31.096Z,102914.53
2022-08-09T05:01:57.586Z,102911.19
2022-08-09T05:04:24.170Z,102919.13
2022-08-09T05:06:57.843Z,102922.00
2022-08-09T05:09:24.673Z,102923.16
2022-08-09T05:11:51.724Z,102918.94
2022-08-09T05:14:18.534Z,102923.59
2022-08-09T05:16:59.009Z,102926.47
2022-08-09T05:19:31.870Z,102924.22
2022-08-09T05:22:34.929Z,102933.44
2022-08-09T05:25:02.580Z,102934.09
2022-08-09T05:27:30.284Z,102927.72
2022-08-09T05:29:57.996Z,102928.44
2022-08-09T05:32:25.832Z,102929.78
2022-08-09T05:34:52.348Z,102928.50
2022-08-09T05:37:19.147Z,102930.66
2022-08-09T05:39:45.768Z,102931.78
2022-08-09T05:42:21.369Z,102932.09
2022-08-09T05:44:52.609Z,102941.91
2022-08-09T05:47:23.907Z,102943.91
2022-08-09T05:50:25.347Z,102947.56
2022-08-09T05:52:41.942Z,102938.94
2022-08-09T05:55:18.273Z,102947.75
2022-08-09T05:57:55.548Z,102946.91
2022-08-09T06:00:29.715Z,102950.41
2022-08-09T06:03:01.510Z,102951.28
2022-08-09T06:05:30.688Z,102954.78
2022-08-09T06:08:19.541Z,102952.19
2022-08-09T06:10:51.983Z,102955.66
2022-08-09T06:13:20.513Z,102950.41
2022-08-09T06:15:51.028Z,102958.25
2022-08-09T06:18:18.473Z,102959.06
2022-08-09T06:20:49.837Z,102966.06
2022-08-09T06:23:21.068Z,102971.34
2022-08-09T06:25:48.877Z,102966.94
2022-08-09T06:28:15.531Z,102968.66
2022-08-09T06:30:43.266Z,102970.38
2022-08-09T06:33:29.917Z,102965.09
2022-08-09T06:35:58.270Z,102970.34
2022-08-09T06:38:32.298Z,102971.19
2022-08-09T06:41:04.714Z,102972.09
2022-08-09T06:43:46.179Z,102976.38
2022-08-09T06:46:39.158Z,102985.03
2022-08-09T06:49:00.369Z,102980.66
2022-08-09T06:51:27.137Z,102986.69
2022-08-09T06:53:55.125Z,102974.41
2022-08-09T06:56:30.505Z,102989.22
2022-08-09T07:00:51.495Z,102986.72
2022-08-09T07:01:54.180Z,102990.09
2022-08-09T07:04:26.906Z,102983.97
2022-08-09T07:07:00.462Z,102985.66
2022-08-09T07:09:55.370Z,102986.53
2022-08-09T07:12:17.879Z,102989.19
2022-08-09T07:14:51.469Z,102991.66
2022-08-09T07:17:21.530Z,102986.38
2022-08-09T07:19:50.885Z,102980.38
2022-08-09T07:22:34.879Z,102985.59
2022-08-09T07:25:05.065Z,102999.56
2022-08-09T07:27:34.207Z,102989.88
2022-08-09T07:30:09.081Z,102989.81
2022-08-09T07:32:36.410Z,102987.22
2022-08-09T07:35:10.651Z,102989.66
2022-08-09T07:37:45.370Z,102990.41
2022-08-09T07:40:18.466Z,102988.81
2022-08-09T07:42:54.090Z,102997.25
2022-08-09T07:45:39.731Z,102988.13
2022-08-09T07:48:25.439Z,102978.88
2022-08-09T07:51:09.776Z,102972.50
2022-08-09T07:54:04.800Z,102979.53
2022-08-09T07:56:33.848Z,102979.31
2022-08-09T07:59:00.675Z,102983.78
2022-08-09T08:01:32.825Z,102978.25
2022-08-09T08:04:00.007Z,102977.41
2022-08-09T08:06:32.203Z,102988.41
2022-08-09T08:09:03.902Z,102981.44
2022-08-09T08:12:12.145Z,102983.44
2022-08-09T08:14:17.851Z,102988.84
2022-08-09T08:17:01.062Z,102980.44
2022-08-09T08:19:31.457Z,102987.69
2022-08-09T08:21:58.253Z,102990.91
2022-08-09T08:24:25.227Z,102985.25
2022-08-09T08:27:01.959Z,102989.16
2022-08-09T08:29:28.751Z,102983.81
2022-08-09T08:32:06.354Z,102994.13
2022-08-09T08:34:34.524Z,102992.19
2022-08-09T08:37:03.350Z,102983.41
2022-08-09T08:39:39.602Z,102971.25
2022-08-09T08:42:11.344Z,102988.22
2022-08-09T08:44:38.064Z,102995.03
2022-08-09T08:47:12.835Z,102985.00
2022-08-09T08:49:48.566Z,102996.84
2022-08-09T08:55:09.791Z,102986.00
2022-08-09T08:57:37.484Z,102989.41
2022-08-09T09:00:12.799Z,102990.06
2022-08-09T09:02:52.675Z,102990.13
2022-08-09T09:05:33.043Z,103001.72
2022-08-09T09:08:30.347Z,102991.94
2022-08-09T09:11:01.887Z,102991.72
2022-08-09T09:13:42.208Z,102997.59
2022-08-09T09:16:16.911Z,103000.50
2022-08-09T09:18:48.724Z,102997.84
2022-08-09T09:21:26.134Z,102991.38
2022-08-09T09:23:58.369Z,102993.50
2022-08-09T09:26:32.325Z,102987.09
2022-08-09T09:29:11.380Z,102991.44
2022-08-09T09:32:05.887Z,102992.88
2022-08-09T09:34:38.751Z,102994.28
2022-08-09T09:37:31.821Z,102989.53
2022-08-09T09:39:59.851Z,102981.94
2022-08-09T09:42:30.939Z,102983.91
2022-08-09T09:45:08.360Z,102994.25
2022-08-09T09:47:47.618Z,102991.59
2022-08-09T09:50:39.700Z,102994.66
2022-08-09T09:53:20.174Z,102994.88
2022-08-09T09:55:57.681Z,102992.81
2022-08-09T09:58:49.128Z,102987.41
2022-08-09T10:01:30.973Z,102987.63
2022-08-09T10:04:15.830Z,102987.34
2022-08-09T10:06:47.228Z,102984.50
2022-08-09T10:09:22.321Z,102980.13
2022-08-09T10:12:14.831Z,102982.78
2022-08-09T10:14:48.976Z,102981.56
2022-08-09T10:17:39.701Z,102974.16
2022-08-09T10:20:33.021Z,102978.31
2022-08-09T10:23:23.683Z,102975.69
2022-08-09T10:26:04.958Z,102970.47
2022-08-09T10:28:35.310Z,102971.00
2022-08-09T10:34:08.676Z,102964.75
2022-08-09T10:36:36.858Z,102966.09
2022-08-09T10:39:05.954Z,102967.81
2022-08-09T10:41:42.807Z,102965.25
2022-08-09T10:44:10.116Z,102965.75
2022-08-09T10:47:20.282Z,102969.19
2022-08-09T10:50:06.010Z,102968.47
2022-08-09T10:52:56.760Z,102963.13
2022-08-09T10:55:35.804Z,102957.72
2022-08-09T10:58:33.780Z,102964.13
2022-08-09T11:03:02.388Z,102950.50
2022-08-09T11:04:19.502Z,102961.91
2022-08-09T11:07:00.254Z,102957.84
2022-08-09T11:09:41.178Z,102958.78
2022-08-09T11:12:15.226Z,102958.63
2022-08-09T11:14:51.268Z,102945.56
2022-08-09T11:17:19.398Z,102963.06
2022-08-09T11:20:10.669Z,102963.03
2022-08-09T11:22:45.344Z,102957.31
2022-08-09T11:25:25.949Z,102956.38
2022-08-09T11:28:08.093Z,102948.72
2022-08-09T11:30:47.733Z,102949.56
2022-08-09T11:33:17.734Z,102954.84
2022-08-09T11:35:50.387Z,102946.72
2022-08-09T11:38:32.988Z,102944.63
2022-08-09T11:41:13.729Z,102948.34
2022-08-09T11:43:46.834Z,102948.31
2022-08-09T11:46:26.859Z,102934.91
2022-08-09T11:48:59.727Z,102943.09
2022-08-09T11:53:02.349Z,102943.38
2022-08-09T11:54:21.522Z,102942.25
2022-08-09T11:57:47.801Z,102945.91
2022-08-09T12:00:27.371Z,102949.34
2022-08-09T12:02:55.494Z,102934.47
2022-08-09T12:05:23.331Z,102935.13
2022-08-09T12:07:50.168Z,102932.25
2022-08-09T12:10:38.788Z,102932.25
2022-08-09T12:14:08.565Z,102932.63
2022-08-09T12:16:11.763Z,102927.75
2022-08-09T12:18:55.694Z,102925.53
2022-08-09T12:21:50.873Z,102923.78
2022-08-09T12:24:26.435Z,102935.00
2022-08-09T12:29:11.582Z,102926.03
2022-08-09T12:30:01.930Z,102914.72
2022-08-09T12:32:41.471Z,102917.56
2022-08-09T12:35:10.889Z,102917.28
2022-08-09T12:37:49.601Z,102911.34
2022-08-09T12:40:18.938Z,102911.34
2022-08-09T12:42:46.620Z,102912.66
2022-08-09T12:45:34.299Z,102910.59
2022-08-09T12:48:07.921Z,102912.00
2022-08-09T12:50:47.967Z,102899.81
2022-08-09T12:53:32.190Z,102921.25
2022-08-09T12:56:42.870Z,102907.69
2022-08-09T12:59:11.918Z,102916.22
2022-08-09T13:01:48.986Z,102909.03
2022-08-09T13:04:36.994Z,102909.44
2022-08-09T13:07:19.679Z,102903.28
2022-08-09T13:09:55.284Z,102910.28
2022-08-09T13:12:27.051Z,102904.34
2022-08-09T13:15:07.330Z,102907.09
2022-08-09T13:18:03.879Z,102896.72
2022-08-09T13:20:37.439Z,102900.94
2022-08-09T13:24:16.340Z,102894.09
2022-08-09T13:26:43.905Z,102913.75
2022-08-09T13:29:19.435Z,102909.94
2022-08-09T13:32:17.472Z,102908.50
2022-08-09T13:34:46.693Z,102914.88
2022-08-09T13:37:50.972Z,102899.38
2022-08-09T13:41:46.388Z,102909.44
2022-08-09T13:42:49.914Z,102889.41
2022-08-09T13:45:17.444Z,102895.56
2022-08-09T13:47:52.817Z,102894.00
2022-08-09T13:50:31.096Z,102899.09
2022-08-09T13:52:58.621Z,102887.88
2022-08-09T13:55:29.058Z,102886.53
2022-08-09T13:57:58.327Z,102883.59
2022-08-09T14:00:28.596Z,102882.44
2022-08-09T14:03:16.724Z,102881.97
2022-08-09T14:06:00.375Z,102880.84
2022-08-09T14:08:31.910Z,102891.94
2022-08-09T14:10:59.655Z,102883.88
2022-08-09T14:14:24.720Z,102890.28
2022-08-09T14:16:28.307Z,102878.91
2022-08-09T14:18:57.210Z,102889.00
2022-08-09T14:21:28.959Z,102890.00
2022-08-09T14:23:57.503Z,102869.03
2022-08-09T14:26:30.528Z,102883.88
2022-08-09T14:29:25.386Z,102883.34
2022-08-09T14:31:55.046Z,102881.78
2022-08-09T14:34:31.201Z,102884.44
2022-08-09T14:37:00.114Z,102876.66
2022-08-09T14:39:47.418Z,102878.38
2022-08-09T14:42:13.557Z,102870.38
2022-08-09T14:45:00.821Z,102869.38
2022-08-09T14:47:44.660Z,102867.44
2022-08-09T14:50:16.192Z,102863.06
2022-08-09T14:52:43.943Z,102862.06
2022-08-09T14:55:20.449Z,102863.94
2022-08-09T14:57:48.753Z,102866.63
2022-08-09T15:00:15.962Z,102856.97
2022-08-09T15:02:42.463Z,102855.75
2022-08-09T15:05:15.968Z,102863.91
2022-08-09T15:07:45.656Z,102859.53
2022-08-09T15:10:21.796Z,102854.34
2022-08-09T15:12:52.690Z,102857.91
2022-08-09T15:15:20.202Z,102845.41
2022-08-09T15:17:52.359Z,102851.59
2022-08-09T15:21:57.686Z,102863.09
2022-08-09T15:24:01.831Z,102867.50
2022-08-09T15:25:55.577Z,102871.34
2022-08-09T15:28:27.789Z,102847.44
2022-08-09T15:31:07.432Z,102852.78
2022-08-09T15:34:19.565Z,102845.66
2022-08-09T15:36:29.079Z,102852.72
2022-08-09T15:38:58.896Z,102838.94
2022-08-09T15:41:31.165Z,102845.97
2022-08-09T15:43:59.857Z,102841.47
2022-08-09T15:46:32.375Z,102841.41
2022-08-09T15:49:21.155Z,102834.66
2022-08-09T15:52:04.438Z,102830.97
2022-08-09T15:54:43.086Z,102836.13
2022-08-09T15:57:13.379Z,102847.63
2022-08-09T15:59:39.880Z,102832.72
2022-08-09T16:02:09.569Z,102831.97
2022-08-09T16:04:40.112Z,102832.75
2022-08-09T16:07:09.920Z,102813.59
2022-08-09T16:09:51.429Z,102819.63
2022-08-09T16:12:26.249Z,102813.34
2022-08-09T16:14:57.470Z,102824.81
2022-08-09T16:17:24.194Z,102825.00
2022-08-09T16:20:04.445Z,102818.72
2022-08-09T16:22:32.309Z,102821.53
2022-08-09T16:25:01.455Z,102820.75
2022-08-09T16:27:29.793Z,102826.06
2022-08-09T16:30:01.097Z,102821.75
2022-08-09T16:32:53.404Z,102819.97
2022-08-09T16:35:56.507Z,102821.94
2022-08-09T16:38:09.398Z,102820.03
2022-08-09T16:40:40.930Z,102816.59
2022-08-09T16:43:08.254Z,102819.13
2022-08-09T16:45:35.083Z,102818.28
2022-08-09T16:48:41.537Z,102814.84
2022-08-09T16:50:59.578Z,102826.16
2022-08-09T16:53:35.182Z,102819.13
2022-08-09T16:56:07.607Z,102828.16
2022-08-09T16:58:37.071Z,102828.25
2022-08-09T17:01:06.562Z,102824.84
2022-08-09T17:03:34.385Z,102822.25
2022-08-09T17:06:06.853Z,102813.66
2022-08-09T17:09:00.248Z,102814.59
2022-08-09T17:11:40.133Z,102812.00
2022-08-09T17:14:25.421Z,102825.09
2022-08-09T17:16:59.833Z,102816.50
2022-08-09T17:20:05.147Z,102826.88
2022-08-09T17:22:24.811Z,102827.88
2022-08-09T17:25:02.618Z,102815.84
2022-08-09T17:27:30.599Z,102821.84
2022-08-09T17:29:57.726Z,102829.72
2022-08-09T17:32:26.622Z,102826.31
2022-08-09T17:35:11.791Z,102821.06
2022-08-09T17:38:13.133Z,102816.75
2022-08-09T17:40:30.359Z,102817.59
2022-08-09T17:42:59.506Z,102816.81
2022-08-09T17:45:45.525Z,102821.19
2022-08-09T17:48:16.878Z,102821.31
2022-08-09T17:50:55.993Z,102807.25
2022-08-09T17:53:23.477Z,102811.75
2022-08-09T17:55:54.224Z,102817.84
2022-08-09T17:58:27.004Z,102813.50
2022-08-09T18:00:56.559Z,102817.09
2022-08-09T18:03:25.646Z,102794.53
2022-08-09T18:05:53.645Z,102811.16
2022-08-09T18:08:22.120Z,102812.94
2022-08-09T18:11:02.130Z,102821.78
2022-08-09T18:13:43.683Z,102817.44
2022-08-09T18:16:30.286Z,102813.19
2022-08-09T18:19:03.559Z,102826.41
2022-08-09T18:21:41.431Z,102819.41
2022-08-09T18:24:14.322Z,102808.03
2022-08-09T18:26:46.205Z,102816.00
2022-08-09T18:30:36.327Z,102810.78
2022-08-09T18:32:05.768Z,102807.38
2022-08-09T18:34:35.127Z,102808.28
2022-08-09T18:37:10.465Z,102815.31
2022-08-09T18:39:53.506Z,102804.91
2022-08-09T18:42:21.189Z,102816.28
2022-08-09T18:44:55.964Z,102815.44
2022-08-09T18:47:27.607Z,102825.13
2022-08-09T18:50:02.950Z,102819.00
2022-08-09T18:52:34.896Z,102816.41
2022-08-09T18:55:02.830Z,102818.19
2022-08-09T18:57:42.912Z,102823.47
2022-08-09T19:00:16.656Z,102808.63
2022-08-09T19:02:46.783Z,102820.00
2022-08-09T19:05:20.524Z,102819.19
2022-08-09T19:08:09.542Z,102823.59
2022-08-09T19:10:39.360Z,102821.88
2022-08-09T19:13:18.861Z,102818.44
2022-08-09T19:15:51.124Z,102827.16
2022-08-09T19:18:33.710Z,102823.69
2022-08-09T19:21:08.726Z,102825.47
2022-08-09T19:24:36.156Z,102843.84
2022-08-09T19:26:29.450Z,102836.88
2022-08-09T19:29:01.474Z,102851.72
2022-08-09T19:31:30.256Z,102846.47
2022-08-09T19:33:58.090Z,102846.50
2022-08-09T19:36:30.813Z,102857.88
2022-08-09T19:38:59.563Z,102860.47
2022-08-09T19:41:33.108Z,102861.34
2022-08-09T19:44:03.174Z,102857.00
2022-08-09T19:46:35.566Z,102869.22
2022-08-09T19:50:09.375Z,102881.44
2022-08-09T19:51:55.257Z,102878.81
2022-08-09T19:54:27.031Z,102877.91
2022-08-09T19:56:54.835Z,102893.63
2022-08-09T19:59:57.415Z,102886.66
2022-08-09T20:02:17.383Z,102888.41
2022-08-09T20:04:58.748Z,102884.88
2022-08-09T20:07:26.229Z,102893.63
2022-08-09T20:10:17.559Z,102883.13
2022-08-09T20:12:49.629Z,102894.47
2022-08-09T20:16:35.458Z,102884.88
2022-08-09T20:18:05.193Z,102882.25
2022-08-09T20:20:35.739Z,102885.72
2022-08-09T20:23:04.551Z,102876.97
2022-08-09T20:25:38.195Z,102889.19
2022-08-09T20:28:24.403Z,102879.53
2022-08-09T20:31:01.041Z,102883.91
2022-08-09T20:33:39.185Z,102879.50
2022-08-09T20:36:08.394Z,102873.34
2022-08-09T20:38:57.163Z,102880.34
2022-08-09T20:41:32.209Z,102890.78
2022-08-09T20:44:03.590Z,102882.91
2022-08-09T20:46:34.057Z,102889.91
2022-08-09T20:49:10.290Z,102875.03
2022-08-09T20:51:41.553Z,102881.13
2022-08-09T20:54:10.506Z,102895.91
2022-08-09T20:56:39.393Z,102894.16
2022-08-09T20:59:07.627Z,102899.38
2022-08-09T21:01:50.870Z,102898.47
2022-08-09T21:05:56.696Z,102889.72
2022-08-09T21:07:12.476Z,102876.56
2022-08-09T21:09:45.830Z,102887.88
2022-08-09T21:15:12.953Z,102878.22
2022-08-09T21:18:23.295Z,102886.94
2022-08-09T21:20:31.308Z,102884.25
2022-08-09T21:22:59.361Z,102885.97
2022-08-09T21:25:55.408Z,102888.56
2022-08-09T21:28:34.303Z,102893.69
2022-08-09T21:31:17.925Z,102894.56
2022-08-09T21:33:52.750Z,102890.19
2022-08-09T21:36:23.113Z,102885.78
2022-08-09T21:38:57.813Z,102895.34
2022-08-09T21:42:05.570Z,102870.00
2022-08-09T21:44:32.816Z,102871.72
2022-08-09T21:47:05.768Z,102893.50
2022-08-09T21:49:39.675Z,102894.38
2022-08-09T21:52:16.392Z,102892.50
2022-08-09T21:54:59.623Z,102888.94
2022-08-09T21:57:39.635Z,102891.56
2022-08-09T22:00:25.481Z,102888.88
2022-08-09T22:02:58.383Z,102888.88
2022-08-09T22:05:35.818Z,102888.78
2022-08-09T22:08:13.538Z,102887.00
2022-08-09T22:11:04.837Z,102889.63
2022-08-09T22:13:31.570Z,102887.78
2022-08-09T22:16:00.897Z,102888.66
2022-08-09T22:18:30.833Z,102893.88
2022-08-09T22:21:00.223Z,102897.31
2022-08-09T22:23:27.108Z,102895.53
2022-08-09T22:26:07.518Z,102895.53
2022-08-09T22:28:47.095Z,102889.44
2022-08-09T22:31:20.591Z,102888.47
2022-08-09T22:33:55.138Z,102886.66
2022-08-09T22:36:22.408Z,102885.72
2022-08-09T22:38:49.048Z,102868.22
2022-08-09T22:41:15.682Z,102887.38
2022-08-09T22:44:03.291Z,102884.75
2022-08-09T22:48:12.120Z,102881.25
2022-08-09T22:49:16.137Z,102875.09
2022-08-09T22:51:49.241Z,102876.81
2022-08-09T22:54:16.002Z,102875.03
2022-08-09T22:56:42.585Z,102854.06
2022-08-09T22:59:57.403Z,102875.03
2022-08-09T23:01:59.537Z,102888.94
2022-08-09T23:04:27.243Z,102880.19
2022-08-09T23:07:17.898Z,102874.09
2022-08-09T23:10:04.790Z,102874.03
2022-08-09T23:12:31.313Z,102880.13
2022-08-09T23:14:57.809Z,102887.91
2022-08-09T23:17:25.384Z,102883.56
2022-08-09T23:20:07.245Z,102886.97
2022-08-09T23:22:35.832Z,102881.66
2022-08-09T23:25:04.640Z,102885.94
2022-08-09T23:27:31.272Z,102880.72
2022-08-09T23:29:57.843Z,102890.34
2022-08-09T23:32:24.562Z,102875.41
2022-08-09T23:34:51.113Z,102878.97
2022-08-09T23:37:21.354Z,102881.50
2022-08-09T23:39:57.980Z,102883.19
2022-08-09T23:42:26.414Z,102874.44
2022-08-09T23:44:53.011Z,102876.16
2022-08-09T23:47:19.502Z,102873.47
2022-08-09T23:49:46.044Z,102879.56
2022-08-09T23:52:12.599Z,102875.13
2022-08-09T23:54:39.136Z,102874.22
2022-08-09T23:57:10.978Z,102885.41
2022-08-09T23:59:57.675Z,102877.56
